Time;durP1;ratioP1;P1;durP2;ratioP2;P2;SDS_P1;SDS_P2;PMS_P1;PMS_P2;Temp;Humidity;BMP_temperature;BMP_pressure;BME280_temperature;BME280_humidity;BME280_pressure;Samples;Min_cycle;Max_cycle;Signal;HPM_P1;HPM_P2
2023/06/19 04:32:11;;;;;;;25.45;9.23;;;17.90;83.10;;;;;;5174175;23;20051;-80
2023/06/19 04:34:46;;;;;;;19.40;8.43;;;17.80;83.40;;;;;;4972600;28;20033;-80
2023/06/19 04:37:12;;;;;;;21.20;9.05;;;17.90;83.40;;;;;;4965055;28;20026;-78
2023/06/19 04:39:37;;;;;;;17.30;8.68;;;17.90;83.40;;;;;;4953648;29;20055;-76
2023/06/19 04:42:03;;;;;;;27.13;9.90;;;18.00;83.10;;;;;;4953781;29;20027;-76
2023/06/19 04:44:33;;;;;;;22.33;9.10;;;17.90;83.10;;;;;;4966384;28;20031;-77
2023/06/19 04:47:01;;;;;;;19.27;9.13;;;17.90;83.20;;;;;;4972865;28;20019;-77
2023/06/19 04:49:30;;;;;;;21.80;9.15;;;17.90;83.40;;;;;;4972884;28;20031;-77
2023/06/19 04:51:58;;;;;;;28.63;9.80;;;17.90;83.20;;;;;;4971910;28;20042;-76
2023/06/19 04:54:25;;;;;;;27.23;10.02;;;17.90;83.70;;;;;;4956409;28;20050;-77
2023/06/19 04:56:51;;;;;;;25.20;10.60;;;18.00;83.50;;;;;;4976783;28;20033;-77
2023/06/19 04:59:18;;;;;;;31.15;10.30;;;18.00;83.60;;;;;;4975560;28;20064;-79
2023/06/19 05:01:44;;;;;;;27.83;10.40;;;18.10;83.20;;;;;;4974890;28;20026;-77
2023/06/19 05:04:11;;;;;;;29.33;10.07;;;18.00;83.50;;;;;;4986713;28;20152;-80
2023/06/19 05:06:37;;;;;;;26.40;10.75;;;18.00;83.60;;;;;;4993238;28;20029;-79
2023/06/19 05:09:02;;;;;;;24.45;10.32;;;18.00;83.60;;;;;;4963271;28;20019;-86
2023/06/19 05:11:28;;;;;;;23.25;10.88;;;18.00;83.60;;;;;;4964078;28;20026;-85
2023/06/19 05:13:54;;;;;;;26.35;11.00;;;18.00;84.20;;;;;;4972399;28;20492;-86
2023/06/19 05:16:19;;;;;;;31.90;10.70;;;17.90;84.70;;;;;;4980174;28;20481;-86
2023/06/19 05:18:45;;;;;;;27.73;10.80;;;18.10;84.40;;;;;;4962700;28;20061;-86
2023/06/19 05:21:11;;;;;;;23.90;11.38;;;18.10;84.10;;;;;;4984703;28;20366;-86
2023/06/19 05:23:38;;;;;;;26.15;11.45;;;18.20;84.00;;;;;;4962405;28;20019;-86
2023/06/19 05:26:04;;;;;;;30.15;12.48;;;18.30;83.80;;;;;;4978752;28;20091;-87
2023/06/19 05:28:30;;;;;;;29.05;12.20;;;18.20;84.00;;;;;;4979803;28;20123;-83
2023/06/19 05:30:55;;;;;;;28.17;11.35;;;18.30;83.60;;;;;;4971330;28;21213;-83
2023/06/19 05:33:23;;;;;;;25.65;11.05;;;18.40;83.70;;;;;;4977002;28;20553;-83
2023/06/19 05:35:52;;;;;;;29.67;12.20;;;18.40;83.40;;;;;;4978615;28;20391;-83
2023/06/19 05:38:20;;;;;;;25.88;10.60;;;18.50;83.70;;;;;;4977872;28;20059;-83
2023/06/19 05:40:46;;;;;;;25.75;9.77;;;18.50;84.00;;;;;;4973503;28;21226;-82
2023/06/19 05:43:12;;;;;;;20.25;9.32;;;18.50;83.60;;;;;;4974142;28;20125;-83
2023/06/19 05:45:38;;;;;;;25.95;10.75;;;18.60;83.60;;;;;;4977243;28;20055;-82
2023/06/19 05:48:04;;;;;;;30.33;10.68;;;18.60;83.60;;;;;;4977434;28;20074;-83
2023/06/19 05:50:30;;;;;;;24.70;10.15;;;18.60;83.80;;;;;;4978041;28;20068;-80
2023/06/19 05:52:56;;;;;;;21.45;10.20;;;18.50;84.20;;;;;;4976929;28;20114;-82
2023/06/19 05:55:22;;;;;;;29.73;10.73;;;18.50;84.20;;;;;;4975557;28;20059;-86
2023/06/19 05:57:47;;;;;;;21.15;10.10;;;18.60;84.00;;;;;;4977202;28;20501;-86
2023/06/19 06:00:14;;;;;;;21.17;9.25;;;18.60;83.80;;;;;;4978424;28;20086;-87
2023/06/19 06:02:40;;;;;;;24.77;9.38;;;18.80;83.80;;;;;;4962195;28;20026;-85
2023/06/19 06:05:08;;;;;;;21.90;10.07;;;18.70;83.60;;;;;;4957857;28;20134;-84
2023/06/19 06:07:34;;;;;;;21.48;10.13;;;18.70;83.80;;;;;;4978206;28;20107;-84
2023/06/19 06:10:00;;;;;;;26.95;10.55;;;18.70;83.90;;;;;;4973209;28;20086;-85
2023/06/19 06:12:26;;;;;;;22.23;10.90;;;18.80;83.80;;;;;;4978220;28;20027;-83
2023/06/19 06:14:51;;;;;;;28.70;11.10;;;18.80;83.50;;;;;;4978699;28;20490;-85
2023/06/19 06:17:17;;;;;;;24.90;10.57;;;18.90;83.40;;;;;;4978987;28;20537;-82
2023/06/19 06:19:42;;;;;;;28.52;11.48;;;18.90;83.10;;;;;;4978107;28;20065;-86
2023/06/19 06:22:08;;;;;;;28.20;11.40;;;18.80;83.00;;;;;;4978628;28;20105;-90
2023/06/19 06:24:34;;;;;;;29.58;11.27;;;18.90;83.10;;;;;;4979192;28;20026;-90
2023/06/19 06:26:59;;;;;;;24.00;10.38;;;18.90;83.20;;;;;;4978412;28;20030;-86
2023/06/19 06:29:25;;;;;;;25.25;11.43;;;18.90;83.10;;;;;;4978886;28;20029;-85
2023/06/19 06:31:53;;;;;;;27.40;10.82;;;19.10;82.90;;;;;;4973632;28;20053;-86
2023/06/19 06:34:19;;;;;;;25.60;10.30;;;19.00;83.00;;;;;;4973705;28;20031;-89
2023/06/19 06:36:45;;;;;;;25.13;10.27;;;19.00;83.10;;;;;;4978320;28;20568;-88
2023/06/19 06:39:11;;;;;;;22.42;10.45;;;19.10;82.70;;;;;;4961773;28;20031;-86
2023/06/19 06:41:37;;;;;;;24.67;11.40;;;19.10;82.70;;;;;;4971080;28;20027;-86
2023/06/19 06:44:04;;;;;;;24.75;10.30;;;19.20;82.70;;;;;;4977718;28;20034;-86
2023/06/19 06:46:29;;;;;;;23.10;9.77;;;19.30;82.60;;;;;;4971968;28;20029;-87
2023/06/19 06:48:55;;;;;;;20.42;8.50;;;19.40;82.30;;;;;;4977813;28;20027;-85
2023/06/19 06:51:22;;;;;;;16.52;8.13;;;19.70;81.60;;;;;;4971134;28;20068;-86
2023/06/19 06:53:47;;;;;;;17.48;8.65;;;19.70;80.80;;;;;;4976909;28;20552;-88
2023/06/19 06:56:13;;;;;;;18.83;8.90;;;19.90;80.30;;;;;;4976454;28;20066;-86
2023/06/19 06:58:39;;;;;;;18.13;8.48;;;19.80;80.50;;;;;;4976639;28;20031;-85
2023/06/19 07:01:04;;;;;;;15.50;7.85;;;19.90;80.60;;;;;;4975653;28;20105;-87
2023/06/19 07:03:31;;;;;;;16.13;8.23;;;19.80;80.80;;;;;;4961059;28;20033;-87
2023/06/19 07:05:57;;;;;;;15.15;7.15;;;20.00;79.80;;;;;;4977329;28;20030;-89
2023/06/19 07:08:23;;;;;;;14.30;6.53;;;20.20;79.50;;;;;;4977719;28;20026;-87
2023/06/19 07:10:49;;;;;;;14.40;7.45;;;20.30;79.60;;;;;;4978793;28;20046;-88
2023/06/19 07:13:14;;;;;;;16.63;7.80;;;20.50;78.60;;;;;;4974529;28;20070;-87
2023/06/19 07:15:40;;;;;;;18.50;7.82;;;20.30;78.50;;;;;;4973341;28;20038;-85
2023/06/19 07:18:05;;;;;;;21.05;8.32;;;20.30;78.60;;;;;;4976009;28;20035;-86
2023/06/19 07:20:31;;;;;;;16.50;8.02;;;20.30;78.80;;;;;;4960962;28;20019;-88
2023/06/19 07:22:57;;;;;;;21.40;8.23;;;20.30;78.70;;;;;;4973424;28;20070;-83
2023/06/19 07:25:25;;;;;;;15.32;6.85;;;20.30;78.60;;;;;;4977998;28;20057;-81
2023/06/19 07:27:50;;;;;;;21.08;8.13;;;20.30;78.80;;;;;;4971309;28;20065;-80
2023/06/19 07:30:17;;;;;;;17.05;7.93;;;20.30;78.40;;;;;;4975797;28;20054;-81
2023/06/19 07:32:42;;;;;;;16.60;7.85;;;20.30;78.40;;;;;;4976544;28;20401;-78
2023/06/19 07:35:08;;;;;;;12.73;7.10;;;20.50;77.80;;;;;;4974888;28;20027;-80
2023/06/19 07:37:34;;;;;;;14.77;7.28;;;21.00;76.80;;;;;;4977566;28;20029;-80
2023/06/19 07:39:59;;;;;;;16.10;7.60;;;21.30;75.90;;;;;;4963721;28;20618;-80
2023/06/19 07:42:26;;;;;;;13.25;7.57;;;21.20;75.70;;;;;;4958115;29;20082;-80
2023/06/19 07:44:51;;;;;;;12.90;6.13;;;21.30;74.90;;;;;;4957821;29;20019;-80
2023/06/19 07:47:18;;;;;;;13.80;7.13;;;21.50;74.50;;;;;;4964644;28;20069;-80
2023/06/19 07:49:44;;;;;;;13.18;6.70;;;21.80;73.80;;;;;;4976926;28;20026;-80
2023/06/19 07:52:10;;;;;;;12.63;6.53;;;22.20;72.80;;;;;;4976174;28;20497;-80
2023/06/19 07:54:36;;;;;;;16.20;7.10;;;22.80;70.50;;;;;;4973311;28;20065;-81
2023/06/19 07:57:02;;;;;;;10.93;6.57;;;23.00;69.70;;;;;;4955127;28;20078;-80
2023/06/19 07:59:28;;;;;;;12.65;7.10;;;23.00;69.20;;;;;;4965726;28;20035;-80
2023/06/19 08:01:53;;;;;;;17.30;7.18;;;23.00;69.40;;;;;;4973225;28;20035;-82
2023/06/19 08:04:19;;;;;;;12.23;7.72;;;22.80;70.10;;;;;;4974642;28;20379;-81
2023/06/19 08:06:45;;;;;;;12.02;6.55;;;22.90;70.40;;;;;;4973444;28;20062;-85
2023/06/19 08:09:10;;;;;;;14.60;7.28;;;22.90;69.90;;;;;;4958471;28;20031;-86
2023/06/19 08:11:37;;;;;;;14.60;7.70;;;22.80;70.10;;;;;;4974625;28;20019;-80
2023/06/19 08:14:02;;;;;;;15.15;7.47;;;22.50;71.00;;;;;;4974227;28;20109;-80
2023/06/19 08:16:28;;;;;;;12.77;7.32;;;22.20;72.20;;;;;;4975859;28;20026;-81
2023/06/19 08:18:54;;;;;;;15.02;7.47;;;22.10;72.40;;;;;;4974571;28;20035;-82
2023/06/19 08:21:21;;;;;;;14.70;7.50;;;22.20;72.50;;;;;;4975777;28;20062;-82
2023/06/19 08:23:47;;;;;;;14.95;7.80;;;22.00;71.70;;;;;;4977745;28;20117;-82
2023/06/19 08:26:12;;;;;;;15.50;7.45;;;22.00;72.50;;;;;;4975660;28;20058;-80
2023/06/19 08:28:40;;;;;;;13.35;6.85;;;22.10;72.90;;;;;;4973930;28;20027;-79
2023/06/19 08:31:05;;;;;;;12.32;7.00;;;22.50;71.20;;;;;;4973548;28;20069;-80
2023/06/19 08:33:33;;;;;;;13.82;7.10;;;22.30;70.90;;;;;;4975007;28;20393;-81
2023/06/19 08:35:59;;;;;;;12.00;6.88;;;22.40;70.80;;;;;;4974425;28;20023;-81
2023/06/19 08:38:25;;;;;;;14.15;6.53;;;22.60;71.10;;;;;;4975205;28;20027;-81
2023/06/19 08:40:50;;;;;;;15.90;7.03;;;22.70;71.00;;;;;;4976060;28;20406;-81
2023/06/19 08:43:16;;;;;;;13.57;6.43;;;22.60;70.40;;;;;;4968232;28;20035;-79
2023/06/19 08:45:42;;;;;;;10.15;6.30;;;22.80;70.10;;;;;;4961214;28;20043;-81
2023/06/19 08:48:13;;;;;;;12.43;6.38;;;22.90;70.40;;;;;;4976024;28;20033;-79
2023/06/19 08:50:38;;;;;;;14.40;7.35;;;23.20;69.70;;;;;;4975782;28;20027;-81
2023/06/19 08:53:04;;;;;;;11.75;7.07;;;23.30;69.80;;;;;;4973393;28;20086;-81
2023/06/19 08:55:29;;;;;;;13.88;7.10;;;24.10;67.70;;;;;;4975589;28;20085;-81
2023/06/19 08:57:55;;;;;;;10.02;5.65;;;24.40;65.50;;;;;;4974836;28;20082;-82
2023/06/19 09:00:25;;;;;;;9.75;5.63;;;24.40;64.80;;;;;;4974083;28;20027;-81
2023/06/19 09:02:52;;;;;;;11.85;5.82;;;24.50;64.90;;;;;;4974405;28;20035;-79
2023/06/19 09:05:18;;;;;;;9.98;5.43;;;24.60;62.80;;;;;;4975264;28;20038;-80
2023/06/19 09:07:54;;;;;;;10.25;5.88;;;24.80;63.40;;;;;;4975959;28;20105;-82
2023/06/19 09:10:20;;;;;;;12.85;6.22;;;25.10;62.00;;;;;;4974840;28;20027;-80
2023/06/19 09:12:59;;;;;;;10.10;5.68;;;25.30;63.00;;;;;;4972182;28;20023;-79
2023/06/19 09:15:28;;;;;;;8.98;5.28;;;25.50;61.80;;;;;;4971691;28;20046;-80
2023/06/19 09:18:03;;;;;;;9.10;5.45;;;25.60;62.40;;;;;;4974251;28;20109;-81
2023/06/19 09:20:29;;;;;;;8.82;4.80;;;25.40;62.90;;;;;;4971876;28;20504;-80
2023/06/19 09:22:59;;;;;;;8.90;4.85;;;25.10;61.30;;;;;;4977906;28;20031;-81
2023/06/19 09:25:26;;;;;;;10.15;4.60;;;24.80;62.80;;;;;;4977417;28;20035;-80
2023/06/19 09:27:54;;;;;;;9.15;5.28;;;24.60;64.10;;;;;;4968782;28;20019;-79
2023/06/19 09:30:20;;;;;;;11.00;5.35;;;24.40;64.10;;;;;;4974710;28;20027;-80
2023/06/19 09:32:45;;;;;;;9.30;5.13;;;24.50;65.60;;;;;;4973088;28;20031;-81
2023/06/19 09:35:11;;;;;;;7.47;4.82;;;24.60;64.00;;;;;;4974664;28;20086;-83
2023/06/19 09:37:38;;;;;;;10.70;4.93;;;24.70;63.60;;;;;;4961929;28;20041;-81
2023/06/19 09:40:14;;;;;;;7.85;4.55;;;24.80;62.30;;;;;;4972490;28;20046;-82
2023/06/19 09:42:43;;;;;;;8.15;4.50;;;24.90;62.00;;;;;;4972843;28;20061;-80
2023/06/19 09:45:12;;;;;;;8.68;4.70;;;24.90;62.40;;;;;;4975537;28;20038;-81
2023/06/19 09:47:42;;;;;;;8.90;4.90;;;25.10;62.60;;;;;;4975096;28;20030;-82
2023/06/19 09:50:10;;;;;;;9.35;5.15;;;25.20;62.60;;;;;;4975761;28;20041;-80
2023/06/19 09:52:36;;;;;;;9.57;4.82;;;25.20;61.50;;;;;;4959024;28;20129;-80
2023/06/19 09:55:04;;;;;;;7.97;4.90;;;25.30;60.40;;;;;;4977617;28;20125;-80
2023/06/19 09:57:31;;;;;;;8.30;4.60;;;25.40;59.90;;;;;;4976489;28;20030;-82
2023/06/19 09:59:59;;;;;;;8.18;5.00;;;25.30;62.00;;;;;;4975782;28;20034;-81
2023/06/19 10:02:27;;;;;;;11.32;4.82;;;25.20;61.00;;;;;;4973022;28;20023;-80
2023/06/19 10:04:57;;;;;;;8.23;5.30;;;25.20;60.60;;;;;;4966915;28;20023;-80
2023/06/19 10:07:27;;;;;;;8.73;4.68;;;25.20;62.50;;;;;;4970362;28;20466;-81
2023/06/19 10:10:12;;;;;;;7.65;4.70;;;24.90;61.50;;;;;;4973356;28;20086;-76
2023/06/19 10:12:44;;;;;;;11.98;5.35;;;24.80;63.50;;;;;;4975091;28;20150;-74
2023/06/19 10:15:13;;;;;;;9.48;4.70;;;24.80;62.30;;;;;;4974387;28;20108;-74
2023/06/19 10:17:49;;;;;;;8.43;5.10;;;24.80;62.90;;;;;;4972483;28;20026;-74
2023/06/19 10:20:24;;;;;;;9.68;5.32;;;24.80;62.80;;;;;;4970590;28;20473;-74
2023/06/19 10:23:00;;;;;;;9.10;5.50;;;24.80;62.20;;;;;;4975524;28;20082;-74
2023/06/19 10:25:29;;;;;;;10.63;5.75;;;25.00;61.20;;;;;;4978954;28;20094;-75
2023/06/19 10:27:55;;;;;;;9.27;5.90;;;25.20;62.10;;;;;;4976493;28;20178;-74
2023/06/19 10:30:21;;;;;;;11.55;5.93;;;26.00;61.00;;;;;;4977363;28;20039;-82
2023/06/19 10:32:49;;;;;;;10.52;5.30;;;26.90;59.00;;;;;;4976195;28;20062;-83
2023/06/19 10:35:17;;;;;;;10.40;5.38;;;26.80;57.40;;;;;;4976910;28;20089;-81
2023/06/19 10:37:44;;;;;;;10.80;5.63;;;27.20;58.00;;;;;;4977742;28;20023;-82
2023/06/19 10:40:10;;;;;;;12.13;6.15;;;27.30;55.70;;;;;;4977650;28;20410;-81
2023/06/19 10:42:39;;;;;;;8.57;5.00;;;27.30;56.30;;;;;;4976691;28;20034;-83
2023/06/19 10:45:08;;;;;;;7.40;4.75;;;27.40;55.20;;;;;;4977158;28;20030;-81
2023/06/19 10:47:34;;;;;;;6.78;4.35;;;27.50;57.00;;;;;;4976968;28;20085;-81
2023/06/19 10:50:00;;;;;;;8.52;4.80;;;27.10;55.70;;;;;;4977506;28;20030;-80
2023/06/19 10:52:29;;;;;;;7.78;4.55;;;26.80;56.00;;;;;;4974940;28;20110;-80
2023/06/19 10:54:55;;;;;;;9.70;4.43;;;26.80;56.90;;;;;;4977562;28;20038;-79
2023/06/19 10:57:30;;;;;;;9.40;4.32;;;26.60;56.80;;;;;;4977317;28;20082;-80
2023/06/19 10:59:58;;;;;;;8.40;4.80;;;26.40;56.70;;;;;;4976951;28;20027;-80
2023/06/19 11:02:25;;;;;;;7.60;4.38;;;26.30;56.80;;;;;;4977405;28;20030;-80
2023/06/19 11:04:54;;;;;;;6.95;4.53;;;25.80;57.60;;;;;;4977193;28;20019;-80
2023/06/19 11:07:20;;;;;;;10.27;4.50;;;25.50;57.40;;;;;;4977191;28;20501;-80
2023/06/19 11:09:46;;;;;;;8.50;4.57;;;25.70;58.20;;;;;;4977282;28;20050;-80
2023/06/19 11:12:11;;;;;;;6.10;4.20;;;25.90;58.50;;;;;;4959560;28;20035;-77
2023/06/19 11:14:39;;;;;;;7.85;3.85;;;26.00;56.70;;;;;;4976290;28;20033;-80
2023/06/19 11:17:09;;;;;;;8.70;4.20;;;26.20;57.70;;;;;;4976960;28;20492;-80
2023/06/19 11:19:36;;;;;;;6.10;4.07;;;26.10;54.80;;;;;;4974156;28;20030;-79
2023/06/19 11:22:03;;;;;;;7.47;4.00;;;26.20;55.70;;;;;;4974212;28;20504;-81
2023/06/19 11:24:29;;;;;;;6.88;4.00;;;26.40;55.10;;;;;;4976914;28;20022;-80
2023/06/19 11:26:57;;;;;;;6.32;4.53;;;26.60;53.60;;;;;;4975707;28;20038;-80
2023/06/19 11:29:33;;;;;;;8.88;4.75;;;26.70;54.50;;;;;;4975217;28;20509;-79
2023/06/19 11:32:24;;;;;;;8.65;4.53;;;26.90;54.20;;;;;;4975548;28;20061;-81
2023/06/19 11:34:53;;;;;;;6.93;4.13;;;27.20;55.20;;;;;;4972049;28;20109;-80
2023/06/19 11:37:20;;;;;;;6.97;3.97;;;27.20;53.50;;;;;;4966487;28;20030;-80
2023/06/19 11:39:47;;;;;;;6.40;4.10;;;27.20;53.00;;;;;;4975286;28;20077;-80
2023/06/19 11:42:14;;;;;;;8.30;4.30;;;27.00;53.10;;;;;;4974248;28;20023;-81
2023/06/19 11:44:56;;;;;;;6.50;4.25;;;27.00;52.50;;;;;;4963024;28;20419;-80
2023/06/19 11:47:22;;;;;;;9.20;4.50;;;27.20;52.00;;;;;;4956438;29;20024;-80
2023/06/19 11:49:49;;;;;;;7.38;4.60;;;27.30;52.90;;;;;;4956207;29;20115;-81
2023/06/19 11:52:15;;;;;;;6.82;3.80;;;27.20;53.30;;;;;;4964149;28;20062;-80
2023/06/19 11:54:40;;;;;;;8.45;4.13;;;26.80;52.10;;;;;;4975079;28;20026;-80
2023/06/19 11:57:06;;;;;;;6.78;4.00;;;26.40;52.00;;;;;;4977152;28;20050;-79
2023/06/19 11:59:32;;;;;;;7.93;4.40;;;26.40;54.50;;;;;;4976155;28;20497;-81
2023/06/19 12:01:59;;;;;;;7.47;4.70;;;26.80;56.00;;;;;;4976850;28;20034;-81
2023/06/19 12:04:25;;;;;;;7.50;4.68;;;27.00;55.00;;;;;;4968325;28;20070;-81
2023/06/19 12:06:52;;;;;;;9.55;4.30;;;27.10;54.70;;;;;;4976533;28;20035;-80
2023/06/19 12:09:18;;;;;;;8.32;4.30;;;26.70;54.00;;;;;;4975737;28;20528;-82
2023/06/19 12:11:44;;;;;;;8.95;4.43;;;26.60;55.30;;;;;;4973423;28;20034;-82
2023/06/19 12:14:10;;;;;;;6.18;4.20;;;26.80;55.40;;;;;;4980804;28;20101;-82
2023/06/19 12:16:35;;;;;;;6.28;3.40;;;27.00;53.60;;;;;;4996289;28;20038;-82
2023/06/19 12:19:01;;;;;;;6.00;3.35;;;27.00;52.60;;;;;;4996008;28;20014;-82
2023/06/19 12:21:26;;;;;;;5.93;3.38;;;26.80;51.70;;;;;;4996152;28;20039;-82
2023/06/19 12:23:52;;;;;;;7.00;3.35;;;26.80;53.30;;;;;;4979642;28;20057;-83
2023/06/19 12:26:19;;;;;;;5.13;3.00;;;26.90;52.60;;;;;;4985696;28;20105;-79
2023/06/19 12:28:45;;;;;;;7.63;3.20;;;26.90;53.90;;;;;;4959557;28;20066;-80
2023/06/19 12:31:10;;;;;;;7.15;3.67;;;26.80;53.80;;;;;;4976723;28;20122;-81
2023/06/19 12:33:38;;;;;;;6.63;3.35;;;27.10;53.70;;;;;;4962550;28;20034;-82
2023/06/19 12:36:05;;;;;;;7.38;3.97;;;27.20;53.90;;;;;;4965232;28;20166;-81
2023/06/19 12:38:31;;;;;;;5.38;2.80;;;27.40;52.60;;;;;;4957377;28;20020;-81
2023/06/19 12:40:57;;;;;;;6.55;3.28;;;27.00;50.10;;;;;;4968713;28;20085;-82
2023/06/19 12:43:22;;;;;;;6.00;3.20;;;26.80;52.70;;;;;;4972785;28;20035;-83
2023/06/19 12:45:48;;;;;;;6.15;3.83;;;26.90;53.10;;;;;;4958899;28;20143;-86
2023/06/19 12:48:14;;;;;;;7.13;3.35;;;27.00;53.10;;;;;;4975254;28;20035;-79
2023/06/19 12:50:39;;;;;;;6.50;3.60;;;27.00;52.60;;;;;;4976631;28;20500;-79
2023/06/19 12:53:05;;;;;;;6.57;3.53;;;27.10;52.60;;;;;;4958395;28;20042;-79
2023/06/19 12:55:30;;;;;;;6.55;3.67;;;26.80;49.90;;;;;;4976428;28;20031;-77
2023/06/19 12:57:56;;;;;;;6.72;3.88;;;26.80;51.40;;;;;;4975287;28;20031;-75
2023/06/19 13:00:22;;;;;;;7.65;3.80;;;27.00;52.30;;;;;;4976595;28;20027;-75
2023/06/19 13:02:47;;;;;;;7.43;4.07;;;26.80;52.50;;;;;;4976204;28;20065;-75
2023/06/19 13:05:13;;;;;;;6.03;4.00;;;27.00;53.30;;;;;;4974967;28;20038;-74
2023/06/19 13:07:38;;;;;;;7.63;4.07;;;27.00;53.00;;;;;;4973777;28;20031;-74
2023/06/19 13:10:05;;;;;;;7.18;4.18;;;27.10;52.30;;;;;;4976165;28;20394;-74
2023/06/19 13:12:32;;;;;;;11.18;4.15;;;27.00;52.50;;;;;;4978106;28;20077;-74
2023/06/19 13:14:57;;;;;;;8.90;3.60;;;26.80;53.20;;;;;;4978525;28;20917;-74
2023/06/19 13:17:24;;;;;;;7.35;3.92;;;26.70;52.60;;;;;;4979768;28;20229;-74
2023/06/19 13:19:50;;;;;;;5.20;3.00;;;26.50;53.10;;;;;;4980232;28;20073;-74
2023/06/19 13:22:15;;;;;;;6.72;3.40;;;26.60;50.50;;;;;;4978711;28;20027;-74
2023/06/19 13:24:41;;;;;;;5.28;3.30;;;26.60;49.90;;;;;;4978096;28;20489;-76
2023/06/19 13:27:07;;;;;;;6.57;3.15;;;26.50;51.30;;;;;;4973688;28;20028;-76
2023/06/19 13:29:32;;;;;;;6.22;3.42;;;26.40;51.00;;;;;;4978699;28;20045;-77
2023/06/19 13:31:58;;;;;;;5.22;3.42;;;26.60;53.00;;;;;;4977897;28;20058;-76
2023/06/19 13:34:24;;;;;;;7.07;3.75;;;26.80;51.80;;;;;;4979111;28;20038;-76
2023/06/19 13:36:49;;;;;;;6.13;3.28;;;27.10;50.20;;;;;;4977910;28;20160;-76
2023/06/19 13:39:15;;;;;;;5.70;3.33;;;27.40;52.00;;;;;;4979189;28;20461;-76
2023/06/19 13:41:40;;;;;;;6.03;3.67;;;27.30;50.60;;;;;;4979001;28;20046;-77
2023/06/19 13:44:07;;;;;;;6.25;2.95;;;27.20;50.80;;;;;;4977793;28;20449;-76
2023/06/19 13:46:33;;;;;;;6.72;3.22;;;27.10;50.70;;;;;;4974723;28;20050;-76
2023/06/19 13:48:58;;;;;;;6.07;2.90;;;26.90;49.80;;;;;;4978996;28;20508;-76
2023/06/19 13:51:25;;;;;;;6.90;2.90;;;27.00;51.00;;;;;;4979004;28;20030;-76
2023/06/19 13:53:51;;;;;;;5.10;3.20;;;27.10;50.10;;;;;;4978749;28;20027;-76
2023/06/19 13:56:17;;;;;;;5.95;2.95;;;26.90;49.60;;;;;;4977878;28;20030;-76
2023/06/19 13:58:43;;;;;;;5.30;2.90;;;26.70;48.60;;;;;;4977506;28;20023;-79
2023/06/19 14:01:09;;;;;;;6.55;3.38;;;26.70;50.00;;;;;;4960265;28;20493;-77
2023/06/19 14:03:39;;;;;;;6.32;3.17;;;26.60;50.90;;;;;;4977663;28;20505;-80
2023/06/19 14:06:05;;;;;;;5.32;3.13;;;26.70;51.10;;;;;;4973500;28;20069;-80
2023/06/19 14:08:31;;;;;;;6.80;3.35;;;26.80;51.10;;;;;;4963665;28;20031;-79
2023/06/19 14:10:57;;;;;;;5.82;3.03;;;27.00;51.40;;;;;;4979104;28;20107;-78
2023/06/19 14:13:22;;;;;;;6.07;2.90;;;26.90;50.20;;;;;;4978788;28;20039;-78
2023/06/19 14:15:48;;;;;;;5.97;3.25;;;26.80;51.50;;;;;;4977850;28;20882;-80
2023/06/19 14:18:14;;;;;;;5.47;2.85;;;26.80;52.00;;;;;;4978866;28;20038;-81
2023/06/19 14:20:41;;;;;;;5.45;3.15;;;26.80;50.70;;;;;;4979127;28;20027;-78
2023/06/19 14:23:07;;;;;;;5.80;3.00;;;26.90;51.40;;;;;;4977914;28;20030;-78
2023/06/19 14:25:34;;;;;;;5.50;3.00;;;26.90;51.40;;;;;;4976261;28;20039;-77
2023/06/19 14:27:59;;;;;;;7.05;3.38;;;26.80;49.90;;;;;;4976197;28;20026;-77
2023/06/19 14:30:25;;;;;;;5.93;3.22;;;26.80;52.00;;;;;;4976110;28;20038;-77
2023/06/19 14:32:51;;;;;;;6.70;3.08;;;26.60;53.10;;;;;;4976826;28;20034;-79
2023/06/19 14:35:17;;;;;;;5.43;3.10;;;26.40;53.40;;;;;;4976439;28;20031;-80
2023/06/19 14:37:43;;;;;;;6.43;3.28;;;26.30;53.30;;;;;;4980312;28;20034;-81
2023/06/19 14:40:09;;;;;;;5.45;3.15;;;26.60;55.00;;;;;;4985313;28;20082;-76
2023/06/19 14:42:34;;;;;;;5.40;3.25;;;26.50;52.50;;;;;;4985916;28;20037;-76
2023/06/19 14:45:00;;;;;;;6.43;3.53;;;26.30;52.20;;;;;;4966934;28;20401;-77
2023/06/19 14:47:25;;;;;;;4.78;2.97;;;26.60;53.30;;;;;;4962682;28;20026;-79
2023/06/19 14:49:51;;;;;;;4.85;3.10;;;27.00;54.60;;;;;;4981564;28;20109;-79
2023/06/19 14:52:20;;;;;;;6.82;3.22;;;27.10;53.20;;;;;;4984185;28;20392;-79
2023/06/19 14:54:46;;;;;;;5.38;2.75;;;27.20;53.20;;;;;;4977886;28;20126;-81
2023/06/19 14:57:11;;;;;;;5.45;3.00;;;26.80;51.80;;;;;;4974150;28;20050;-78
2023/06/19 14:59:37;;;;;;;5.22;2.97;;;26.80;52.50;;;;;;4972503;28;20389;-78
2023/06/19 15:02:03;;;;;;;5.30;3.00;;;26.80;52.80;;;;;;4977466;28;20038;-78
2023/06/19 15:04:29;;;;;;;5.97;3.05;;;26.80;52.30;;;;;;4974891;28;20378;-77
2023/06/19 15:06:55;;;;;;;6.50;2.85;;;26.60;51.70;;;;;;4984503;28;20058;-78
2023/06/19 15:09:21;;;;;;;6.60;3.10;;;26.40;52.30;;;;;;4980251;28;20047;-78
2023/06/19 15:11:47;;;;;;;6.05;3.10;;;26.20;52.40;;;;;;4959089;28;20072;-78
2023/06/19 15:14:12;;;;;;;5.78;2.58;;;26.30;52.40;;;;;;4960850;28;20022;-78
2023/06/19 15:16:38;;;;;;;4.82;2.90;;;26.20;52.00;;;;;;4972139;28;20031;-78
2023/06/19 15:19:04;;;;;;;4.82;2.90;;;26.30;52.40;;;;;;4974584;28;20023;-78
2023/06/19 15:21:29;;;;;;;7.30;3.50;;;26.60;52.40;;;;;;4975826;28;20023;-78
2023/06/19 15:23:58;;;;;;;5.72;3.10;;;26.80;51.10;;;;;;4975946;28;20027;-78
2023/06/19 15:26:24;;;;;;;4.85;2.75;;;27.00;52.40;;;;;;4973049;28;20039;-78
2023/06/19 15:28:53;;;;;;;5.47;3.30;;;27.20;51.20;;;;;;4975935;28;20030;-78
2023/06/19 15:31:21;;;;;;;5.75;3.35;;;27.20;50.70;;;;;;4974972;28;20061;-78
2023/06/19 15:33:47;;;;;;;5.72;3.28;;;27.30;52.40;;;;;;4976379;28;20150;-78
2023/06/19 15:36:13;;;;;;;5.35;3.38;;;27.40;51.00;;;;;;4956714;28;20058;-81
2023/06/19 15:38:38;;;;;;;6.15;3.20;;;27.30;51.30;;;;;;4972002;28;20545;-76
2023/06/19 15:41:04;;;;;;;6.07;3.20;;;27.40;52.00;;;;;;4972733;28;20758;-82
2023/06/19 15:43:30;;;;;;;7.07;3.28;;;27.20;50.90;;;;;;4955135;28;20031;-78
2023/06/19 15:45:56;;;;;;;6.70;3.35;;;27.00;51.40;;;;;;4974953;28;20029;-78
2023/06/19 15:48:22;;;;;;;5.85;3.15;;;26.80;50.50;;;;;;4971376;28;20118;-78
2023/06/19 15:50:48;;;;;;;6.88;3.35;;;26.60;51.00;;;;;;4970713;28;20030;-78
2023/06/19 15:53:14;;;;;;;6.38;3.70;;;26.30;51.30;;;;;;4971276;28;20517;-78
2023/06/19 15:55:41;;;;;;;7.65;4.00;;;26.20;52.00;;;;;;4969606;28;20031;-78
2023/06/19 15:58:07;;;;;;;7.22;3.50;;;26.20;52.80;;;;;;4968780;28;20070;-77
2023/06/19 16:00:33;;;;;;;6.80;3.30;;;26.00;52.00;;;;;;4974583;28;20062;-77
2023/06/19 16:02:59;;;;;;;7.03;3.70;;;26.10;52.00;;;;;;4970181;28;20034;-77
2023/06/19 16:05:25;;;;;;;5.70;3.38;;;26.00;53.40;;;;;;4971473;28;20105;-76
2023/06/19 16:07:51;;;;;;;6.85;3.65;;;25.80;52.30;;;;;;4959957;28;20507;-88
2023/06/19 16:10:17;;;;;;;6.75;3.78;;;25.80;52.40;;;;;;4974146;28;20552;-79
2023/06/19 16:12:43;;;;;;;7.30;3.90;;;25.90;53.20;;;;;;4968428;28;20030;-79
2023/06/19 16:15:12;;;;;;;8.05;3.80;;;26.00;52.80;;;;;;4967102;28;20027;-74
2023/06/19 16:17:39;;;;;;;7.78;3.75;;;25.90;51.80;;;;;;4958267;28;20015;-74
2023/06/19 16:20:06;;;;;;;6.60;3.22;;;25.80;52.80;;;;;;4966415;28;20027;-74
2023/06/19 16:22:33;;;;;;;8.40;3.65;;;25.70;53.70;;;;;;4966339;28;20031;-75
2023/06/19 16:24:59;;;;;;;6.57;3.53;;;25.70;52.90;;;;;;4974452;28;20109;-75
2023/06/19 16:27:25;;;;;;;6.28;3.53;;;25.60;52.60;;;;;;4970082;28;20039;-75
2023/06/19 16:29:50;;;;;;;8.18;3.88;;;25.60;53.90;;;;;;4966093;28;20031;-75
2023/06/19 16:32:16;;;;;;;6.43;3.75;;;25.70;52.80;;;;;;4966980;28;20035;-74
2023/06/19 16:34:42;;;;;;;6.63;4.00;;;25.80;53.20;;;;;;4965719;28;20031;-77
2023/06/19 16:37:08;;;;;;;6.88;3.70;;;25.80;52.90;;;;;;4965738;28;20067;-89
2023/06/19 16:39:33;;;;;;;6.25;3.40;;;25.90;52.30;;;;;;4956401;28;20093;-86
2023/06/19 16:41:59;;;;;;;7.13;3.72;;;25.90;52.60;;;;;;4968921;28;20109;-89
2023/06/19 16:44:25;;;;;;;7.60;3.40;;;25.90;52.20;;;;;;4972231;28;20034;-87
2023/06/19 16:46:50;;;;;;;6.97;3.90;;;25.90;52.20;;;;;;4958753;28;20561;-82
2023/06/19 16:49:17;;;;;;;5.93;3.65;;;25.90;52.80;;;;;;4976810;28;20481;-79
2023/06/19 16:51:42;;;;;;;7.15;3.63;;;25.90;52.80;;;;;;4981093;28;20054;-81
2023/06/19 16:54:08;;;;;;;7.40;3.80;;;26.00;52.20;;;;;;4961236;28;20031;-83
2023/06/19 16:56:34;;;;;;;6.32;3.60;;;26.10;51.50;;;;;;4967348;28;20107;-83
2023/06/19 16:59:01;;;;;;;7.18;3.60;;;26.00;49.80;;;;;;4957052;28;20035;-83
2023/06/19 17:01:27;;;;;;;6.75;3.65;;;25.90;49.80;;;;;;4975199;28;20030;-83
2023/06/19 17:03:53;;;;;;;5.97;3.20;;;26.00;50.20;;;;;;4968482;28;22154;-85
2023/06/19 17:06:18;;;;;;;6.32;3.63;;;26.20;50.40;;;;;;4936427;28;20030;-79
2023/06/19 17:08:44;;;;;;;6.65;3.38;;;26.20;51.10;;;;;;4975660;28;20030;-79